Time;durP1;ratioP1;P1;durP2;ratioP2;P2;SDS_P1;SDS_P2;PMS_P1;PMS_P2;Temp;Humidity;BMP_temperature;BMP_pressure;BME280_temperature;BME280_humidity;BME280_pressure;Samples;Min_cycle;Max_cycle;Signal;HPM_P1;HPM_P2
2021/10/20 00:00:00;;;;;;;10.93;8.63;;;;;;;;;;2081869;28;20309;-64
2021/10/20 00:01:00;;;;;;;9.00;8.10;;;;;;;;;;2098879;28;20186;-68
2021/10/20 00:02:00;;;;;;;11.60;9.23;;;;;;;;;;2094815;28;20170;-65
2021/10/20 00:03:00;;;;;;;9.77;8.70;;;;;;;;;;2077504;28;20252;-67
2021/10/20 00:04:01;;;;;;;9.63;8.43;;;;;;;;;;2080440;28;20612;-67
2021/10/20 00:05:02;;;;;;;9.23;8.30;;;;;;;;;;2087201;28;20270;-66
2021/10/20 00:06:02;;;;;;;10.30;9.30;;;;;;;;;;2081705;28;20231;-67
2021/10/20 00:07:02;;;;;;;10.70;8.43;;;;;;;;;;2086485;28;20199;-65
2021/10/20 00:08:07;;;;;;;9.70;8.80;;;;;;;;;;2087986;28;20237;-65
2021/10/20 00:09:07;;;;;;;10.05;9.07;;;;;;;;;;2082719;28;20156;-63
2021/10/20 00:10:07;;;;;;;8.25;7.55;;;;;;;;;;2091687;28;20187;-65
2021/10/20 00:11:08;;;;;;;8.98;8.10;;;;;;;;;;2086069;28;20178;-65
2021/10/20 00:12:08;;;;;;;8.90;8.10;;;;;;;;;;2094401;28;20798;-65
2021/10/20 00:13:08;;;;;;;9.35;7.95;;;;;;;;;;2098032;28;20264;-64
2021/10/20 00:14:09;;;;;;;9.70;8.70;;;;;;;;;;2088844;28;20186;-69
2021/10/20 00:15:10;;;;;;;9.32;8.45;;;;;;;;;;2086818;28;20170;-66
2021/10/20 00:16:10;;;;;;;8.73;7.90;;;;;;;;;;2099164;28;20179;-65
2021/10/20 00:17:10;;;;;;;8.45;7.65;;;;;;;;;;2094799;28;20312;-68
2021/10/20 00:18:11;;;;;;;7.80;7.13;;;;;;;;;;2086319;28;20184;-66
2021/10/20 00:19:11;;;;;;;8.32;7.63;;;;;;;;;;2091397;28;20190;-68
2021/10/20 00:20:15;;;;;;;9.02;7.82;;;;;;;;;;2094254;28;20167;-69
2021/10/20 00:21:19;;;;;;;9.07;8.18;;;;;;;;;;2090158;28;20218;-65
2021/10/20 00:22:19;;;;;;;8.88;7.65;;;;;;;;;;2082255;28;20168;-63
2021/10/20 00:23:19;;;;;;;11.13;7.80;;;;;;;;;;2084814;28;20172;-64
2021/10/20 00:24:19;;;;;;;7.40;6.80;;;;;;;;;;2096160;28;20593;-64
2021/10/20 00:25:20;;;;;;;7.65;6.95;;;;;;;;;;2094496;28;20171;-66
2021/10/20 00:26:20;;;;;;;9.05;7.85;;;;;;;;;;2100237;28;20198;-65
2021/10/20 00:27:21;;;;;;;7.93;6.88;;;;;;;;;;2094606;28;20310;-63
2021/10/20 00:28:21;;;;;;;8.90;7.10;;;;;;;;;;2082628;28;20172;-66
2021/10/20 00:29:21;;;;;;;8.93;7.22;;;;;;;;;;2086695;28;20614;-66
2021/10/20 00:30:22;;;;;;;9.25;7.22;;;;;;;;;;2087490;28;20164;-64
2021/10/20 00:31:22;;;;;;;7.95;7.18;;;;;;;;;;2098727;28;20169;-67
2021/10/20 00:32:23;;;;;;;7.63;6.85;;;;;;;;;;2086503;28;20172;-66
2021/10/20 00:33:23;;;;;;;7.55;6.88;;;;;;;;;;2087585;28;20164;-69
2021/10/20 00:34:23;;;;;;;7.55;6.95;;;;;;;;;;2083955;28;20190;-66
2021/10/20 00:35:24;;;;;;;7.05;6.45;;;;;;;;;;2086705;28;20206;-66
2021/10/20 00:36:24;;;;;;;7.00;6.40;;;;;;;;;;2096469;28;20167;-67
2021/10/20 00:37:24;;;;;;;7.68;6.90;;;;;;;;;;2079838;28;20482;-67
2021/10/20 00:38:24;;;;;;;7.28;6.47;;;;;;;;;;2077794;28;20172;-66
2021/10/20 00:39:25;;;;;;;7.22;6.50;;;;;;;;;;2088641;28;20651;-67
2021/10/20 00:40:25;;;;;;;7.68;7.07;;;;;;;;;;2095247;28;20556;-68
2021/10/20 00:41:29;;;;;;;9.50;6.63;;;;;;;;;;2094329;28;20830;-67
2021/10/20 00:42:29;;;;;;;6.97;6.45;;;;;;;;;;2090008;28;20176;-66
2021/10/20 00:43:29;;;;;;;6.60;6.00;;;;;;;;;;2084216;28;20217;-64
2021/10/20 00:44:43;;;;;;;6.60;6.00;;;;;;;;;;2078890;28;20728;-65
2021/10/20 00:45:43;;;;;;;6.80;6.20;;;;;;;;;;2081277;28;20560;-66
2021/10/20 00:46:43;;;;;;;6.50;5.90;;;;;;;;;;2083281;28;20176;-64
2021/10/20 00:47:43;;;;;;;6.38;5.78;;;;;;;;;;2098715;28;20179;-65
2021/10/20 00:48:44;;;;;;;6.70;6.18;;;;;;;;;;2091734;28;20173;-66
2021/10/20 00:49:44;;;;;;;6.28;5.75;;;;;;;;;;2093604;28;20662;-67
2021/10/20 00:50:45;;;;;;;6.45;5.88;;;;;;;;;;2091028;28;20643;-66
2021/10/20 00:51:45;;;;;;;6.20;5.60;;;;;;;;;;2093689;28;20207;-67
2021/10/20 00:52:45;;;;;;;6.07;5.43;;;;;;;;;;2084338;28;20184;-70
2021/10/20 00:53:46;;;;;;;7.30;6.13;;;;;;;;;;2082287;28;20231;-64
2021/10/20 00:54:46;;;;;;;6.18;5.60;;;;;;;;;;2082041;28;20737;-66
2021/10/20 00:55:47;;;;;;;6.65;5.70;;;;;;;;;;2081836;28;20183;-68
2021/10/20 00:56:47;;;;;;;5.60;5.18;;;;;;;;;;2073220;28;20222;-69
2021/10/20 00:57:47;;;;;;;5.47;4.97;;;;;;;;;;2089292;28;20597;-68
2021/10/20 00:58:48;;;;;;;5.68;5.28;;;;;;;;;;2090707;28;20229;-68
2021/10/20 00:59:49;;;;;;;5.35;4.95;;;;;;;;;;2083373;28;20168;-70
2021/10/20 01:00:50;;;;;;;7.22;5.97;;;;;;;;;;2098252;28;20542;-69
2021/10/20 01:01:50;;;;;;;5.55;5.15;;;;;;;;;;2088069;28;20254;-67
2021/10/20 01:02:50;;;;;;;6.25;5.72;;;;;;;;;;2089092;28;20179;-63
2021/10/20 01:03:51;;;;;;;6.80;5.38;;;;;;;;;;2091632;28;20183;-67
2021/10/20 01:04:51;;;;;;;5.75;5.25;;;;;;;;;;2096324;28;20166;-65
2021/10/20 01:05:51;;;;;;;6.35;5.70;;;;;;;;;;2082071;28;20192;-65
2021/10/20 01:06:52;;;;;;;5.78;5.28;;;;;;;;;;2068983;28;20201;-67
2021/10/20 01:07:53;;;;;;;5.70;5.13;;;;;;;;;;2081195;28;20187;-67
2021/10/20 01:08:53;;;;;;;6.40;5.30;;;;;;;;;;2083731;28;20180;-69
2021/10/20 01:09:53;;;;;;;5.68;5.18;;;;;;;;;;2096934;28;20159;-69
2021/10/20 01:10:53;;;;;;;5.60;5.10;;;;;;;;;;2082123;28;20192;-64
2021/10/20 01:11:54;;;;;;;6.05;5.22;;;;;;;;;;2088336;28;20167;-65
2021/10/20 01:12:54;;;;;;;5.80;5.25;;;;;;;;;;2083688;28;20641;-69
2021/10/20 01:13:54;;;;;;;5.65;5.15;;;;;;;;;;2098246;28;20206;-65
2021/10/20 01:14:55;;;;;;;5.65;5.05;;;;;;;;;;2085348;28;20182;-65
2021/10/20 01:15:56;;;;;;;5.70;5.18;;;;;;;;;;2096968;28;20185;-64
2021/10/20 01:16:57;;;;;;;7.82;5.40;;;;;;;;;;2077174;28;20173;-67
2021/10/20 01:17:57;;;;;;;5.05;4.65;;;;;;;;;;2081037;28;20601;-67
2021/10/20 01:18:58;;;;;;;5.35;4.88;;;;;;;;;;2086313;28;20179;-66
2021/10/20 01:19:59;;;;;;;8.25;4.82;;;;;;;;;;2095606;28;20550;-66
2021/10/20 01:21:03;;;;;;;5.50;5.10;;;;;;;;;;2076135;28;20177;-67
2021/10/20 01:22:03;;;;;;;5.45;5.00;;;;;;;;;;2078894;28;20234;-67
2021/10/20 01:23:04;;;;;;;5.20;4.80;;;;;;;;;;2078432;28;20794;-67
2021/10/20 01:24:05;;;;;;;6.32;5.30;;;;;;;;;;2089458;28;20184;-68
2021/10/20 01:25:06;;;;;;;5.45;4.90;;;;;;;;;;2090100;28;20288;-66
2021/10/20 01:26:06;;;;;;;5.38;4.90;;;;;;;;;;2091945;28;20731;-69
2021/10/20 01:27:07;;;;;;;4.82;4.45;;;;;;;;;;2095524;28;20191;-68
2021/10/20 01:28:07;;;;;;;5.18;4.68;;;;;;;;;;2092707;28;20175;-69
2021/10/20 01:29:07;;;;;;;5.43;4.93;;;;;;;;;;2095878;28;20175;-69
2021/10/20 01:30:08;;;;;;;5.20;4.55;;;;;;;;;;2090018;28;20694;-65
2021/10/20 01:31:08;;;;;;;5.75;5.28;;;;;;;;;;2082064;28;20266;-63
2021/10/20 01:32:09;;;;;;;6.15;4.22;;;;;;;;;;2085034;28;20684;-67
2021/10/20 01:33:10;;;;;;;4.43;4.13;;;;;;;;;;2087939;28;20164;-69
2021/10/20 01:34:10;;;;;;;4.53;4.13;;;;;;;;;;2091488;28;20235;-66
2021/10/20 01:35:10;;;;;;;5.60;4.88;;;;;;;;;;2086902;28;20195;-64
2021/10/20 01:36:11;;;;;;;4.53;4.22;;;;;;;;;;2061755;28;20182;-67
2021/10/20 01:37:11;;;;;;;4.75;4.18;;;;;;;;;;2062503;28;20206;-68
2021/10/20 01:38:11;;;;;;;4.63;4.22;;;;;;;;;;2085960;28;20244;-65
2021/10/20 01:39:12;;;;;;;4.57;4.25;;;;;;;;;;2087258;28;20477;-67
2021/10/20 01:40:12;;;;;;;5.43;5.03;;;;;;;;;;2083531;28;20202;-66
2021/10/20 01:41:12;;;;;;;4.95;4.55;;;;;;;;;;2094459;28;20191;-67
2021/10/20 01:42:12;;;;;;;4.88;4.53;;;;;;;;;;2087697;28;20178;-68
2021/10/20 01:43:13;;;;;;;4.82;4.50;;;;;;;;;;2092114;28;20194;-67
2021/10/20 01:44:13;;;;;;;7.72;4.80;;;;;;;;;;2095024;28;20260;-67
2021/10/20 01:45:15;;;;;;;4.20;3.90;;;;;;;;;;2096945;28;20168;-67
2021/10/20 01:46:17;;;;;;;4.95;4.55;;;;;;;;;;2092792;28;20754;-68
2021/10/20 01:47:17;;;;;;;4.70;4.30;;;;;;;;;;2094724;28;20191;-68
2021/10/20 01:48:17;;;;;;;4.35;4.05;;;;;;;;;;2090877;28;20175;-68
2021/10/20 01:49:18;;;;;;;4.25;3.97;;;;;;;;;;2087284;28;20195;-66
2021/10/20 01:50:18;;;;;;;6.53;3.95;;;;;;;;;;2074056;28;20646;-68
2021/10/20 01:51:18;;;;;;;4.18;3.83;;;;;;;;;;2086961;28;20172;-64
2021/10/20 01:52:19;;;;;;;4.38;3.97;;;;;;;;;;2092199;28;20210;-68
2021/10/20 01:53:19;;;;;;;4.40;4.00;;;;;;;;;;2082843;28;20175;-70
2021/10/20 01:54:20;;;;;;;4.15;3.85;;;;;;;;;;2086059;28;20203;-69
2021/10/20 01:55:20;;;;;;;5.93;4.60;;;;;;;;;;2094839;28;20176;-64
2021/10/20 01:56:20;;;;;;;4.60;4.20;;;;;;;;;;2095531;28;20171;-68
2021/10/20 01:57:21;;;;;;;4.40;4.10;;;;;;;;;;2087531;28;20211;-66
2021/10/20 01:58:21;;;;;;;4.70;4.30;;;;;;;;;;2090191;28;20175;-64
2021/10/20 01:59:21;;;;;;;4.20;3.80;;;;;;;;;;2094315;28;20675;-65
2021/10/20 02:00:22;;;;;;;4.80;4.28;;;;;;;;;;2094370;28;20572;-67
2021/10/20 02:01:22;;;;;;;4.35;3.97;;;;;;;;;;2095855;28;20179;-68
2021/10/20 02:02:23;;;;;;;4.60;4.20;;;;;;;;;;2095138;28;20225;-66
2021/10/20 02:03:26;;;;;;;7.55;4.50;;;;;;;;;;2098984;28;20533;-66
2021/10/20 02:04:26;;;;;;;4.35;4.03;;;;;;;;;;2093685;28;20185;-68
2021/10/20 02:05:27;;;;;;;4.60;4.20;;;;;;;;;;2087507;28;20271;-66
2021/10/20 02:06:27;;;;;;;4.25;3.88;;;;;;;;;;2090679;28;20202;-65
2021/10/20 02:07:27;;;;;;;3.95;3.55;;;;;;;;;;2091377;28;20203;-66
2021/10/20 02:08:28;;;;;;;4.25;3.85;;;;;;;;;;2090792;28;20174;-68
2021/10/20 02:09:28;;;;;;;4.20;3.88;;;;;;;;;;2091256;28;20199;-65
2021/10/20 02:10:28;;;;;;;4.32;3.85;;;;;;;;;;2090698;28;20179;-65
2021/10/20 02:11:28;;;;;;;5.35;3.35;;;;;;;;;;2091571;28;20202;-67
2021/10/20 02:12:29;;;;;;;4.28;3.97;;;;;;;;;;2082173;28;20188;-66
2021/10/20 02:13:29;;;;;;;4.85;4.07;;;;;;;;;;2082647;28;20172;-67
2021/10/20 02:14:29;;;;;;;4.57;3.72;;;;;;;;;;2082329;28;20243;-67
2021/10/20 02:15:29;;;;;;;4.75;4.20;;;;;;;;;;2082324;28;20191;-64
2021/10/20 02:16:30;;;;;;;4.13;3.80;;;;;;;;;;2090840;28;20187;-65
2021/10/20 02:17:30;;;;;;;6.05;3.50;;;;;;;;;;2090861;28;20578;-66
2021/10/20 02:18:30;;;;;;;4.22;3.83;;;;;;;;;;2091378;28;20806;-64
2021/10/20 02:19:31;;;;;;;4.70;3.72;;;;;;;;;;2082097;28;20180;-63
2021/10/20 02:20:31;;;;;;;4.47;4.10;;;;;;;;;;2081419;28;20600;-65
2021/10/20 02:21:31;;;;;;;4.35;3.90;;;;;;;;;;2090253;28;20644;-66
2021/10/20 02:22:33;;;;;;;3.78;3.45;;;;;;;;;;2090086;28;20187;-68
2021/10/20 02:23:33;;;;;;;4.25;3.75;;;;;;;;;;2081385;28;20172;-63
2021/10/20 02:24:34;;;;;;;5.07;3.97;;;;;;;;;;2080864;28;20176;-70
2021/10/20 02:25:34;;;;;;;4.07;3.40;;;;;;;;;;2081447;28;20222;-68
2021/10/20 02:26:34;;;;;;;4.45;4.05;;;;;;;;;;2078584;28;20180;-64
2021/10/20 02:27:35;;;;;;;4.32;3.92;;;;;;;;;;2095192;28;20234;-64
2021/10/20 02:28:35;;;;;;;3.80;3.50;;;;;;;;;;2089293;28;20211;-61
2021/10/20 02:29:35;;;;;;;4.75;4.35;;;;;;;;;;2095143;28;20194;-66
2021/10/20 02:30:36;;;;;;;5.40;3.53;;;;;;;;;;2090969;28;20225;-67
2021/10/20 02:31:36;;;;;;;3.55;3.25;;;;;;;;;;2096714;28;20195;-66
2021/10/20 02:32:36;;;;;;;4.35;3.88;;;;;;;;;;2090818;28;20211;-64
2021/10/20 02:33:37;;;;;;;3.92;3.67;;;;;;;;;;2095300;28;20186;-64
2021/10/20 02:34:37;;;;;;;3.83;3.53;;;;;;;;;;2092162;28;20183;-64
2021/10/20 02:35:37;;;;;;;3.92;3.60;;;;;;;;;;2094311;28;20285;-69
2021/10/20 02:36:38;;;;;;;3.92;3.58;;;;;;;;;;2095209;28;20205;-65
2021/10/20 02:37:38;;;;;;;4.13;3.83;;;;;;;;;;2096148;28;20244;-67
2021/10/20 02:38:38;;;;;;;3.92;3.63;;;;;;;;;;2096278;28;20638;-70
2021/10/20 02:39:39;;;;;;;4.00;3.40;;;;;;;;;;2095924;28;20195;-67
2021/10/20 02:40:39;;;;;;;4.10;3.75;;;;;;;;;;2090914;28;20282;-67
2021/10/20 02:41:40;;;;;;;4.20;3.90;;;;;;;;;;2094868;28;20636;-66
2021/10/20 02:42:40;;;;;;;3.80;3.50;;;;;;;;;;2089199;28;20176;-61
2021/10/20 02:43:41;;;;;;;3.72;3.42;;;;;;;;;;2081595;28;20227;-67
2021/10/20 02:44:41;;;;;;;3.97;3.67;;;;;;;;;;2082441;28;20628;-61
2021/10/20 02:45:41;;;;;;;4.13;3.78;;;;;;;;;;2097182;28;20217;-63
2021/10/20 02:46:42;;;;;;;4.70;4.30;;;;;;;;;;2088936;28;20233;-64
2021/10/20 02:47:42;;;;;;;4.00;3.60;;;;;;;;;;2082464;28;20781;-63
2021/10/20 02:48:44;;;;;;;3.70;3.50;;;;;;;;;;2074719;28;20181;-61
2021/10/20 02:49:44;;;;;;;4.28;3.97;;;;;;;;;;2082927;28;20203;-67
2021/10/20 02:50:44;;;;;;;5.75;3.95;;;;;;;;;;2098167;28;20202;-65
2021/10/20 02:51:44;;;;;;;4.03;3.63;;;;;;;;;;2090464;28;20188;-62
2021/10/20 02:52:45;;;;;;;4.38;3.38;;;;;;;;;;2088031;28;20243;-60
2021/10/20 02:53:45;;;;;;;3.67;3.38;;;;;;;;;;2082072;28;20222;-63
2021/10/20 02:54:45;;;;;;;3.88;3.63;;;;;;;;;;2099541;28;20224;-67
2021/10/20 02:55:45;;;;;;;4.10;3.70;;;;;;;;;;2091613;28;20258;-69
2021/10/20 02:56:46;;;;;;;3.53;3.30;;;;;;;;;;2082250;28;20184;-68
2021/10/20 02:57:46;;;;;;;3.90;3.60;;;;;;;;;;2089878;28;20227;-64
2021/10/20 02:58:46;;;;;;;4.63;3.72;;;;;;;;;;2099233;28;20244;-66
2021/10/20 02:59:47;;;;;;;3.88;3.55;;;;;;;;;;2084138;28;20168;-64
2021/10/20 03:00:48;;;;;;;5.18;3.53;;;;;;;;;;2091977;28;20284;-68
2021/10/20 03:01:48;;;;;;;4.60;3.90;;;;;;;;;;2093284;28;20167;-69
2021/10/20 03:02:48;;;;;;;4.05;3.70;;;;;;;;;;2099844;28;20642;-66
2021/10/20 03:03:48;;;;;;;4.68;3.65;;;;;;;;;;2095094;28;20168;-67
2021/10/20 03:04:49;;;;;;;3.97;3.67;;;;;;;;;;2100236;28;20174;-68
2021/10/20 03:05:49;;;;;;;4.03;3.67;;;;;;;;;;2091846;28;20187;-67
2021/10/20 03:06:49;;;;;;;4.40;3.72;;;;;;;;;;2091154;28;20194;-65
2021/10/20 03:07:50;;;;;;;4.22;3.90;;;;;;;;;;2085625;28;20374;-65
2021/10/20 03:08:51;;;;;;;4.25;3.95;;;;;;;;;;2099446;28;20170;-68
2021/10/20 03:09:51;;;;;;;5.13;4.15;;;;;;;;;;2079433;28;20251;-62
2021/10/20 03:10:51;;;;;;;3.95;3.50;;;;;;;;;;2091184;28;20195;-64
2021/10/20 03:11:52;;;;;;;4.35;3.58;;;;;;;;;;2091768;28;20596;-67
2021/10/20 03:12:52;;;;;;;4.07;3.78;;;;;;;;;;2087170;28;20235;-67
2021/10/20 03:13:52;;;;;;;8.88;3.42;;;;;;;;;;2090114;28;20224;-66
2021/10/20 03:14:52;;;;;;;3.75;3.42;;;;;;;;;;2084871;28;20165;-63
2021/10/20 03:15:52;;;;;;;3.80;3.53;;;;;;;;;;2086469;28;20562;-65
2021/10/20 03:16:53;;;;;;;5.93;3.63;;;;;;;;;;2093751;28;20172;-68
2021/10/20 03:17:53;;;;;;;4.15;3.78;;;;;;;;;;2098548;28;20772;-68
2021/10/20 03:18:54;;;;;;;4.72;4.32;;;;;;;;;;2089497;28;20171;-68
2021/10/20 03:19:54;;;;;;;4.15;3.55;;;;;;;;;;2097400;28;20167;-62
2021/10/20 03:20:54;;;;;;;4.40;4.00;;;;;;;;;;2089141;28;20205;-65
2021/10/20 03:21:54;;;;;;;3.85;3.60;;;;;;;;;;2082290;28;20168;-65
2021/10/20 03:22:55;;;;;;;4.20;3.60;;;;;;;;;;2072847;28;20223;-64
2021/10/20 03:23:55;;;;;;;4.10;3.70;;;;;;;;;;2083345;28;20193;-65
2021/10/20 03:24:55;;;;;;;3.88;3.60;;;;;;;;;;2090648;28;20207;-65
2021/10/20 03:25:56;;;;;;;5.78;3.97;;;;;;;;;;2097372;28;20550;-67
2021/10/20 03:26:56;;;;;;;4.75;4.22;;;;;;;;;;2090277;28;20287;-66
2021/10/20 03:27:56;;;;;;;4.13;3.78;;;;;;;;;;2098648;28;20167;-67
2021/10/20 03:28:56;;;;;;;3.58;3.38;;;;;;;;;;2090417;28;20172;-68
2021/10/20 03:29:57;;;;;;;4.90;3.60;;;;;;;;;;2085281;28;20188;-65
2021/10/20 03:30:57;;;;;;;4.25;3.95;;;;;;;;;;2091258;28;20168;-68
2021/10/20 03:31:57;;;;;;;4.18;3.75;;;;;;;;;;2089956;28;20179;-67
2021/10/20 03:32:57;;;;;;;4.55;3.65;;;;;;;;;;2087378;28;20215;-66
2021/10/20 03:33:58;;;;;;;4.28;3.92;;;;;;;;;;2099330;28;20163;-67
2021/10/20 03:34:58;;;;;;;6.70;3.58;;;;;;;;;;2097376;28;20174;-65
2021/10/20 03:35:58;;;;;;;5.38;3.90;;;;;;;;;;2087941;28;20180;-68
2021/10/20 03:36:58;;;;;;;4.05;3.75;;;;;;;;;;2090271;28;20171;-63
2021/10/20 03:37:59;;;;;;;5.43;4.07;;;;;;;;;;2083505;28;20304;-67
2021/10/20 03:38:59;;;;;;;4.20;3.70;;;;;;;;;;2077483;28;20638;-65
2021/10/20 03:39:59;;;;;;;4.28;3.97;;;;;;;;;;2087666;28;20737;-64
2021/10/20 03:40:59;;;;;;;5.07;3.60;;;;;;;;;;2077091;28;20204;-61
2021/10/20 03:42:00;;;;;;;5.55;4.03;;;;;;;;;;2088481;28;20271;-63
2021/10/20 03:43:00;;;;;;;4.13;3.92;;;;;;;;;;2097309;28;20193;-65
2021/10/20 03:44:00;;;;;;;4.30;3.90;;;;;;;;;;2092884;28;20191;-68
2021/10/20 03:45:01;;;;;;;4.07;3.58;;;;;;;;;;2096581;28;20167;-67
2021/10/20 03:46:01;;;;;;;4.30;3.90;;;;;;;;;;2092823;28;20176;-61
2021/10/20 03:47:02;;;;;;;4.03;3.72;;;;;;;;;;2098009;28;20195;-65
2021/10/20 03:48:02;;;;;;;4.53;4.07;;;;;;;;;;2093268;28;20175;-61
2021/10/20 03:49:02;;;;;;;3.88;3.58;;;;;;;;;;2095090;28;20191;-64
2021/10/20 03:50:03;;;;;;;4.93;3.70;;;;;;;;;;2096294;28;20213;-64
2021/10/20 03:51:04;;;;;;;4.22;3.83;;;;;;;;;;2088921;28;20163;-62
2021/10/20 03:52:04;;;;;;;4.53;4.13;;;;;;;;;;2078218;28;20770;-63
2021/10/20 03:53:04;;;;;;;4.03;3.72;;;;;;;;;;2089321;28;20194;-65
2021/10/20 03:54:05;;;;;;;4.72;3.83;;;;;;;;;;2092020;28;20259;-66
2021/10/20 03:55:05;;;;;;;4.05;3.55;;;;;;;;;;2087971;28;20171;-67
2021/10/20 03:56:06;;;;;;;4.57;4.10;;;;;;;;;;2091498;28;20894;-68
2021/10/20 03:57:06;;;;;;;3.85;3.53;;;;;;;;;;2098142;28;20222;-66
2021/10/20 03:58:06;;;;;;;4.43;4.13;;;;;;;;;;2097724;28;20183;-67
2021/10/20 03:59:06;;;;;;;3.90;3.67;;;;;;;;;;2089873;28;20176;-67
2021/10/20 04:00:10;;;;;;;4.13;3.70;;;;;;;;;;2084786;28;20654;-65
2021/10/20 04:01:14;;;;;;;4.43;3.78;;;;;;;;;;2084660;28;20218;-65
2021/10/20 04:02:15;;;;;;;5.38;4.10;;;;;;;;;;2088157;28;20688;-69
2021/10/20 04:03:15;;;;;;;7.32;3.85;;;;;;;;;;2094820;28;20187;-66
2021/10/20 04:04:15;;;;;;;3.88;3.55;;;;;;;;;;2086915;28;20184;-67
2021/10/20 04:05:16;;;;;;;6.13;4.40;;;;;;;;;;2087046;28;20188;-68
2021/10/20 04:06:17;;;;;;;3.88;3.50;;;;;;;;;;2081059;28;20191;-66
2021/10/20 04:07:17;;;;;;;4.68;4.00;;;;;;;;;;2077348;28;20205;-66
2021/10/20 04:08:17;;;;;;;4.57;4.15;;;;;;;;;;2086718;28;20187;-67
2021/10/20 04:09:18;;;;;;;4.45;4.05;;;;;;;;;;2092008;28;20167;-64
2021/10/20 04:10:20;;;;;;;4.57;3.72;;;;;;;;;;2085929;28;20611;-65
2021/10/20 04:11:20;;;;;;;3.95;3.65;;;;;;;;;;2086292;28;20747;-66
2021/10/20 04:12:20;;;;;;;4.50;4.07;;;;;;;;;;2088792;28;20214;-64
2021/10/20 04:13:21;;;;;;;4.25;3.95;;;;;;;;;;2086395;28;20225;-67
2021/10/20 04:14:21;;;;;;;4.68;4.28;;;;;;;;;;2093882;28;20306;-67
2021/10/20 04:15:24;;;;;;;4.28;3.90;;;;;;;;;;2090901;28;20159;-66
2021/10/20 04:16:24;;;;;;;4.38;3.97;;;;;;;;;;2095621;28;20170;-68
2021/10/20 04:17:24;;;;;;;4.40;4.10;;;;;;;;;;2089915;28;20338;-66
2021/10/20 04:18:25;;;;;;;4.53;4.13;;;;;;;;;;2083607;28;20764;-64
2021/10/20 04:19:25;;;;;;;5.32;4.00;;;;;;;;;;2089275;28;20326;-67
2021/10/20 04:20:26;;;;;;;4.47;4.07;;;;;;;;;;2090019;28;20179;-66
2021/10/20 04:21:26;;;;;;;4.38;4.07;;;;;;;;;;2078121;28;20168;-64
2021/10/20 04:22:26;;;;;;;5.32;3.88;;;;;;;;;;2076363;28;20181;-63
2021/10/20 04:23:26;;;;;;;4.68;4.25;;;;;;;;;;2094971;28;20163;-65
2021/10/20 04:24:27;;;;;;;5.05;4.00;;;;;;;;;;2093734;28;20246;-66
2021/10/20 04:25:27;;;;;;;4.65;4.22;;;;;;;;;;2095389;28;20186;-66
2021/10/20 04:26:27;;;;;;;4.53;3.50;;;;;;;;;;2093891;28;20578;-66
2021/10/20 04:27:28;;;;;;;5.57;4.13;;;;;;;;;;2080667;28;20210;-67
2021/10/20 04:28:28;;;;;;;4.63;3.75;;;;;;;;;;2082123;28;20606;-67
2021/10/20 04:29:28;;;;;;;4.40;4.00;;;;;;;;;;2081880;28;20738;-67
2021/10/20 04:30:29;;;;;;;4.20;3.85;;;;;;;;;;2090187;28;20175;-63
2021/10/20 04:31:29;;;;;;;4.38;3.97;;;;;;;;;;2081211;28;20573;-66
2021/10/20 04:32:29;;;;;;;4.47;4.13;;;;;;;;;;2081860;28;20196;-66
2021/10/20 04:33:29;;;;;;;4.10;3.67;;;;;;;;;;2080757;28;20231;-67
2021/10/20 04:34:30;;;;;;;4.15;3.85;;;;;;;;;;2081870;28;20164;-66
2021/10/20 04:35:30;;;;;;;4.32;3.92;;;;;;;;;;2081535;28;20668;-67
2021/10/20 04:36:30;;;;;;;4.63;3.97;;;;;;;;;;2090583;28;20175;-65
2021/10/20 04:37:31;;;;;;;4.82;4.05;;;;;;;;;;2090527;28;20215;-65
2021/10/20 04:38:31;;;;;;;4.13;3.83;;;;;;;;;;2090688;28;20224;-67
2021/10/20 04:39:31;;;;;;;4.15;3.85;;;;;;;;;;2090186;28;20180;-69
2021/10/20 04:40:32;;;;;;;4.15;3.75;;;;;;;;;;2080968;28;20179;-67
2021/10/20 04:41:32;;;;;;;4.10;3.83;;;;;;;;;;2081590;28;20580;-68
2021/10/20 04:42:33;;;;;;;4.47;3.90;;;;;;;;;;2081613;28;20183;-68
2021/10/20 04:43:33;;;;;;;4.65;4.00;;;;;;;;;;2089659;28;20555;-67
2021/10/20 04:44:33;;;;;;;4.50;4.10;;;;;;;;;;2089444;28;20305;-67
2021/10/20 04:45:34;;;;;;;4.50;4.20;;;;;;;;;;2090696;28;20198;-69
2021/10/20 04:46:34;;;;;;;5.18;4.35;;;;;;;;;;2089859;28;20658;-64
2021/10/20 04:47:34;;;;;;;4.43;4.13;;;;;;;;;;2090038;28;20268;-69
2021/10/20 04:48:35;;;;;;;4.60;4.20;;;;;;;;;;2073153;28;20292;-68
2021/10/20 04:49:35;;;;;;;8.18;4.55;;;;;;;;;;2073398;28;20264;-68
2021/10/20 04:50:35;;;;;;;4.35;4.00;;;;;;;;;;2080115;28;20177;-65
2021/10/20 04:51:35;;;;;;;4.53;4.10;;;;;;;;;;2087341;28;20180;-64
2021/10/20 04:52:36;;;;;;;4.75;4.28;;;;;;;;;;2079698;28;20188;-66
2021/10/20 04:53:38;;;;;;;4.95;4.13;;;;;;;;;;2081464;28;20185;-68
2021/10/20 04:54:38;;;;;;;4.65;4.25;;;;;;;;;;2095191;28;20307;-67
2021/10/20 04:55:39;;;;;;;5.78;4.43;;;;;;;;;;2091159;28;20242;-65
2021/10/20 04:56:39;;;;;;;4.78;4.03;;;;;;;;;;2086086;28;20174;-63
2021/10/20 04:57:39;;;;;;;3.88;3.58;;;;;;;;;;2089439;28;20210;-67
2021/10/20 04:58:39;;;;;;;4.32;4.03;;;;;;;;;;2095845;28;20179;-60
2021/10/20 04:59:40;;;;;;;5.25;4.22;;;;;;;;;;2097213;28;20708;-67
2021/10/20 05:00:40;;;;;;;5.20;4.80;;;;;;;;;;2085848;28;20180;-62
2021/10/20 05:01:40;;;;;;;5.32;4.90;;;;;;;;;;2086902;28;20179;-64
2021/10/20 05:02:40;;;;;;;4.72;3.92;;;;;;;;;;2085862;28;20660;-65
2021/10/20 05:03:41;;;;;;;5.93;4.38;;;;;;;;;;2090652;28;20175;-67
2021/10/20 05:04:41;;;;;;;4.75;4.22;;;;;;;;;;2096751;28;20592;-67
2021/10/20 05:05:42;;;;;;;5.03;4.63;;;;;;;;;;2076752;28;20173;-68
2021/10/20 05:06:42;;;;;;;5.30;4.68;;;;;;;;;;2087503;28;20601;-62
2021/10/20 05:07:49;;;;;;;5.20;4.70;;;;;;;;;;2081996;28;20280;-66
2021/10/20 05:08:49;;;;;;;4.75;4.35;;;;;;;;;;2073695;28;20633;-64
2021/10/20 05:09:50;;;;;;;4.93;4.60;;;;;;;;;;2089246;28;20221;-68
2021/10/20 05:10:50;;;;;;;5.15;4.75;;;;;;;;;;2090367;28;20397;-66
2021/10/20 05:11:50;;;;;;;6.18;4.18;;;;;;;;;;2089667;28;20636;-67
2021/10/20 05:12:50;;;;;;;4.53;4.22;;;;;;;;;;2080171;28;20172;-66
2021/10/20 05:13:51;;;;;;;4.65;4.20;;;;;;;;;;2083511;28;20179;-65
2021/10/20 05:14:51;;;;;;;5.05;4.65;;;;;;;;;;2085873;28;20194;-67
2021/10/20 05:15:52;;;;;;;5.03;4.53;;;;;;;;;;2083920;28;20160;-69
2021/10/20 05:16:53;;;;;;;4.97;4.57;;;;;;;;;;2082579;28;20653;-68
2021/10/20 05:17:53;;;;;;;6.70;4.80;;;;;;;;;;2080412;28;20580;-65
2021/10/20 05:18:53;;;;;;;5.18;4.68;;;;;;;;;;2086563;28;20181;-61
2021/10/20 05:19:54;;;;;;;6.82;4.72;;;;;;;;;;2071035;28;20228;-67
2021/10/20 05:20:54;;;;;;;6.32;5.20;;;;;;;;;;2062599;28;20173;-66
2021/10/20 05:21:54;;;;;;;6.65;5.22;;;;;;;;;;2082949;28;20223;-66
2021/10/20 05:22:55;;;;;;;6.07;5.53;;;;;;;;;;2097124;28;20210;-60
2021/10/20 05:23:55;;;;;;;5.05;4.65;;;;;;;;;;2088031;28;20225;-67
2021/10/20 05:24:55;;;;;;;5.53;5.00;;;;;;;;;;2089974;28;20550;-64
2021/10/20 05:25:56;;;;;;;5.35;4.95;;;;;;;;;;2090549;28;20178;-67
2021/10/20 05:26:56;;;;;;;5.65;5.15;;;;;;;;;;2097059;28;20167;-63
2021/10/20 05:27:57;;;;;;;4.97;4.68;;;;;;;;;;2089791;28;20172;-68
2021/10/20 05:28:57;;;;;;;5.10;4.60;;;;;;;;;;2084483;28;20172;-66
2021/10/20 05:29:57;;;;;;;7.32;5.70;;;;;;;;;;2094011;28;20262;-64
2021/10/20 05:30:58;;;;;;;5.75;5.25;;;;;;;;;;2088043;28;20180;-64
2021/10/20 05:31:59;;;;;;;5.40;4.88;;;;;;;;;;2088702;28;20171;-67
2021/10/20 05:33:00;;;;;;;5.38;4.68;;;;;;;;;;2095759;28;20206;-65
2021/10/20 05:34:00;;;;;;;4.88;4.40;;;;;;;;;;2083699;28;20167;-64
2021/10/20 05:35:00;;;;;;;5.18;4.78;;;;;;;;;;2088149;28;20167;-65
2021/10/20 05:36:01;;;;;;;6.15;4.90;;;;;;;;;;2092791;28;20213;-65
2021/10/20 05:37:01;;;;;;;5.20;4.85;;;;;;;;;;2101732;28;20166;-67
2021/10/20 05:38:01;;;;;;;5.65;5.00;;;;;;;;;;2099913;28;20183;-68
2021/10/20 05:39:02;;;;;;;6.35;5.35;;;;;;;;;;2090362;28;20204;-67
2021/10/20 05:40:02;;;;;;;4.75;4.32;;;;;;;;;;2093700;28;20679;-67
2021/10/20 05:41:03;;;;;;;6.20;5.15;;;;;;;;;;2090409;28;20192;-68
2021/10/20 05:42:03;;;;;;;5.22;4.70;;;;;;;;;;2103047;28;20171;-62
2021/10/20 05:43:03;;;;;;;6.20;5.05;;;;;;;;;;2100418;28;20240;-67
2021/10/20 05:44:04;;;;;;;5.22;4.72;;;;;;;;;;2092171;28;20254;-68
2021/10/20 05:45:04;;;;;;;5.68;5.15;;;;;;;;;;2093836;28;20168;-67
2021/10/20 05:46:04;;;;;;;6.43;5.57;;;;;;;;;;2102031;28;20204;-69
2021/10/20 05:47:05;;;;;;;5.55;5.15;;;;;;;;;;2094032;28;20203;-67
2021/10/20 05:48:05;;;;;;;5.72;5.22;;;;;;;;;;2093113;28;20179;-67
2021/10/20 05:49:05;;;;;;;6.03;5.45;;;;;;;;;;2098875;28;20168;-65
2021/10/20 05:50:06;;;;;;;6.03;5.43;;;;;;;;;;2095611;28;20179;-64
2021/10/20 05:51:06;;;;;;;5.38;4.90;;;;;;;;;;2089434;28;20597;-67
2021/10/20 05:52:07;;;;;;;6.15;5.55;;;;;;;;;;2085967;28;20239;-66
2021/10/20 05:53:07;;;;;;;6.05;5.45;;;;;;;;;;2073614;28;20168;-66
2021/10/20 05:54:08;;;;;;;6.05;5.35;;;;;;;;;;2080357;28;20181;-64
2021/10/20 05:55:08;;;;;;;5.10;4.60;;;;;;;;;;2091332;28;20199;-67
2021/10/20 05:56:08;;;;;;;5.65;4.97;;;;;;;;;;2094604;28;20164;-64
2021/10/20 05:57:09;;;;;;;5.35;4.85;;;;;;;;;;2090810;28;20543;-68
2021/10/20 05:58:09;;;;;;;5.70;5.20;;;;;;;;;;2087686;28;20589;-68
2021/10/20 05:59:10;;;;;;;5.47;5.07;;;;;;;;;;2088377;28;20242;-65
2021/10/20 06:00:14;;;;;;;5.25;4.85;;;;;;;;;;2086106;28;20180;-72
2021/10/20 06:01:14;;;;;;;5.65;5.03;;;;;;;;;;2081829;28;20326;-66
2021/10/20 06:02:14;;;;;;;5.45;5.05;;;;;;;;;;2090892;28;20176;-68